createdAt,value
2023-04-16T00:02:01.246Z,1.33
2023-04-16T00:04:28.452Z,1.45
2023-04-16T00:06:55.445Z,1.58
2023-04-16T00:09:22.294Z,1.15
2023-04-16T00:11:49.578Z,1.67
2023-04-16T00:14:16.361Z,1.08
2023-04-16T00:16:43.139Z,1.48
2023-04-16T00:19:12.309Z,1.42
2023-04-16T00:21:39.204Z,1.52
2023-04-16T00:24:06.028Z,1.80
2023-04-16T00:26:32.851Z,1.30
2023-04-16T00:28:59.797Z,1.17
2023-04-16T00:31:31.190Z,1.65
2023-04-16T00:33:58.996Z,1.80
2023-04-16T00:36:27.806Z,0.90
2023-04-16T00:38:56.030Z,1.60
2023-04-16T00:41:23.145Z,1.10
2023-04-16T00:43:50.848Z,1.35
2023-04-16T00:46:19.760Z,1.05
2023-04-16T00:48:47.344Z,1.20
2023-04-16T00:51:14.277Z,1.58
2023-04-16T00:53:41.894Z,1.27
2023-04-16T00:56:09.698Z,0.80
2023-04-16T00:58:36.568Z,1.15
2023-04-16T01:01:03.559Z,1.30
2023-04-16T01:03:44.458Z,1.65
2023-04-16T01:06:11.369Z,1.60
2023-04-16T01:08:38.558Z,0.90
2023-04-16T01:11:05.656Z,1.38
2023-04-16T01:13:33.772Z,2.03
2023-04-16T01:16:01.310Z,1.00
2023-04-16T01:18:28.137Z,0.80
2023-04-16T01:20:55.318Z,0.70
2023-04-16T01:23:22.588Z,1.80
2023-04-16T01:25:50.193Z,1.73
2023-04-16T01:28:16.990Z,1.10
2023-04-16T01:30:43.965Z,1.25
2023-04-16T01:33:11.662Z,0.93
2023-04-16T01:35:39.158Z,1.00
2023-04-16T01:38:08.838Z,1.13
2023-04-16T01:40:36.839Z,1.17
2023-04-16T01:43:04.962Z,1.00
2023-04-16T01:45:33.495Z,1.30
2023-04-16T01:48:00.920Z,1.70
2023-04-16T01:50:28.226Z,1.90
2023-04-16T01:52:55.141Z,1.65
2023-04-16T01:55:22.014Z,2.92
2023-04-16T01:57:48.811Z,2.08
2023-04-16T02:00:16.127Z,1.52
2023-04-16T02:02:43.110Z,1.60
2023-04-16T02:05:09.985Z,1.33
2023-04-16T02:07:36.766Z,1.60
2023-04-16T02:10:05.333Z,1.63
2023-04-16T02:12:32.121Z,1.60
2023-04-16T02:15:00.192Z,1.92
2023-04-16T02:17:27.250Z,2.15
2023-04-16T02:19:54.090Z,1.38
2023-04-16T02:22:21.201Z,2.22
2023-04-16T02:24:48.134Z,1.98
2023-04-16T02:27:16.017Z,1.42
2023-04-16T02:29:42.859Z,3.60
2023-04-16T02:32:09.871Z,1.50
2023-04-16T02:34:39.837Z,2.20
2023-04-16T02:37:06.606Z,1.50
2023-04-16T02:39:33.431Z,1.50
2023-04-16T02:42:02.484Z,1.60
2023-04-16T02:44:30.733Z,1.60
2023-04-16T02:46:57.466Z,2.08
2023-04-16T02:49:24.183Z,2.05
2023-04-16T02:51:50.916Z,2.17
2023-04-16T02:54:17.778Z,1.90
2023-04-16T02:56:44.509Z,1.35
2023-04-16T02:59:11.553Z,1.67
2023-04-16T03:01:38.569Z,1.60
2023-04-16T03:04:06.351Z,3.08
2023-04-16T03:06:34.685Z,1.80
2023-04-16T03:09:01.507Z,1.73
2023-04-16T03:11:28.790Z,1.63
2023-04-16T03:13:55.617Z,2.83
2023-04-16T03:16:22.767Z,1.38
2023-04-16T03:18:49.929Z,1.67
2023-04-16T03:21:17.006Z,1.63
2023-04-16T03:23:43.801Z,1.90
2023-04-16T03:26:10.657Z,1.25
2023-04-16T03:28:37.451Z,1.23
2023-04-16T03:31:04.668Z,1.48
2023-04-16T03:33:31.635Z,1.33
2023-04-16T03:35:59.200Z,1.85
2023-04-16T03:38:26.683Z,1.67
2023-04-16T03:40:53.501Z,1.83
2023-04-16T03:43:20.570Z,1.60
2023-04-16T03:45:47.509Z,1.58
2023-04-16T03:48:14.645Z,2.20
2023-04-16T03:50:45.519Z,1.98
2023-04-16T03:53:12.309Z,2.75
2023-04-16T03:55:39.044Z,2.28
2023-04-16T03:58:05.963Z,2.10
2023-04-16T04:00:33.103Z,2.28
2023-04-16T04:03:00.132Z,1.88
2023-04-16T04:05:27.009Z,2.20
2023-04-16T04:07:54.629Z,3.10
2023-04-16T04:10:21.389Z,2.03
2023-04-16T04:12:48.160Z,2.15
2023-04-16T04:15:15.397Z,1.88
2023-04-16T04:17:42.248Z,1.80
2023-04-16T04:20:09.685Z,2.42
2023-04-16T04:22:36.479Z,2.00
2023-04-16T04:25:03.537Z,2.08
2023-04-16T04:27:30.577Z,2.17
2023-04-16T04:29:58.080Z,2.08
2023-04-16T04:32:24.965Z,2.00
2023-04-16T04:34:51.790Z,2.00
2023-04-16T04:37:18.577Z,1.88
2023-04-16T04:39:45.606Z,2.00
2023-04-16T04:42:12.410Z,2.90
2023-04-16T04:44:39.323Z,2.00
2023-04-16T04:47:06.320Z,2.47
2023-04-16T04:49:33.367Z,2.47
2023-04-16T04:52:01.321Z,1.90
2023-04-16T04:54:30.613Z,2.15
2023-04-16T04:56:57.569Z,2.47
2023-04-16T04:59:25.613Z,2.05
2023-04-16T05:01:52.526Z,2.50
2023-04-16T05:04:19.848Z,2.20
2023-04-16T05:06:46.624Z,2.30
2023-04-16T05:09:13.394Z,3.47
2023-04-16T05:11:42.164Z,2.10
2023-04-16T05:14:09.154Z,4.05
2023-04-16T05:16:36.994Z,2.13
2023-04-16T05:19:04.883Z,2.20
2023-04-16T05:21:32.305Z,2.58
2023-04-16T05:23:59.181Z,2.22
2023-04-16T05:26:26.131Z,2.50
2023-04-16T05:28:53.178Z,2.05
2023-04-16T05:31:20.122Z,2.10
2023-04-16T05:33:46.958Z,2.75
2023-04-16T05:36:13.731Z,2.38
2023-04-16T05:38:41.528Z,2.35
2023-04-16T05:41:08.726Z,2.40
2023-04-16T05:43:35.658Z,2.53
2023-04-16T05:46:02.488Z,2.40
2023-04-16T05:48:29.352Z,2.22
2023-04-16T05:50:56.153Z,2.38
2023-04-16T05:53:23.796Z,1.95
2023-04-16T05:55:50.605Z,2.25
2023-04-16T05:58:17.380Z,2.17
2023-04-16T06:00:44.225Z,2.30
2023-04-16T06:03:11.533Z,2.17
2023-04-16T06:05:38.456Z,2.10
2023-04-16T06:08:05.300Z,2.25
2023-04-16T06:10:32.100Z,2.35
2023-04-16T06:12:59.322Z,2.20
2023-04-16T06:15:26.150Z,2.30
2023-04-16T06:17:52.936Z,2.80
2023-04-16T06:20:20.336Z,2.45
2023-04-16T06:22:47.822Z,3.13
2023-04-16T06:25:16.873Z,4.45
2023-04-16T06:27:44.903Z,3.10
2023-04-16T06:30:13.363Z,2.85
2023-04-16T06:32:40.554Z,3.05
2023-04-16T06:35:07.809Z,3.08
2023-04-16T06:37:34.733Z,3.00
2023-04-16T06:40:01.934Z,3.83
2023-04-16T06:42:29.142Z,2.83
2023-04-16T06:44:55.916Z,2.92
2023-04-16T06:47:22.740Z,3.95
2023-04-16T06:49:49.558Z,2.70
2023-04-16T06:52:17.163Z,2.83
2023-04-16T06:54:43.909Z,2.20
2023-04-16T06:57:11.217Z,2.50
2023-04-16T06:59:38.040Z,2.47
2023-04-16T07:02:04.898Z,2.13
2023-04-16T07:04:31.744Z,2.45
2023-04-16T07:06:59.123Z,2.35
2023-04-16T07:09:27.214Z,2.45
2023-04-16T07:12:01.246Z,2.80
2023-04-16T07:14:29.726Z,2.33
2023-04-16T07:16:56.593Z,2.10
2023-04-16T07:19:23.800Z,2.55
2023-04-16T07:21:50.594Z,2.53
2023-04-16T07:24:17.443Z,2.85
2023-04-16T07:26:44.193Z,2.10
2023-04-16T07:29:11.088Z,2.53
2023-04-16T07:31:38.730Z,2.13
2023-04-16T07:34:05.667Z,2.20
2023-04-16T07:36:32.407Z,2.00
2023-04-16T07:38:59.194Z,1.95
2023-04-16T07:41:26.176Z,2.97
2023-04-16T07:43:52.964Z,2.00
2023-04-16T07:46:20.079Z,1.70
2023-04-16T07:48:47.188Z,1.70
2023-04-16T07:51:14.454Z,1.70
2023-04-16T07:53:42.076Z,2.92
2023-04-16T07:56:09.251Z,1.75
2023-04-16T07:58:36.008Z,1.60
2023-04-16T08:01:02.856Z,1.60
2023-04-16T08:03:30.088Z,1.88
2023-04-16T08:05:56.976Z,1.70
2023-04-16T08:08:23.861Z,1.75
2023-04-16T08:10:55.671Z,1.50
2023-04-16T08:13:23.956Z,1.60
2023-04-16T08:15:50.895Z,1.45
2023-04-16T08:18:19.184Z,1.30
2023-04-16T08:20:46.390Z,1.50
2023-04-16T08:23:14.871Z,1.40
2023-04-16T08:25:41.623Z,1.17
2023-04-16T08:28:08.376Z,1.30
2023-04-16T08:30:35.468Z,1.05
2023-04-16T08:33:02.568Z,1.33
2023-04-16T08:35:29.459Z,1.10
2023-04-16T08:37:57.851Z,1.17
2023-04-16T08:40:29.427Z,1.20
2023-04-16T08:42:59.130Z,1.10
2023-04-16T08:45:30.363Z,1.30
2023-04-16T08:48:01.825Z,1.02
2023-04-16T08:50:30.352Z,1.25
2023-04-16T08:52:59.891Z,1.08
2023-04-16T08:55:37.507Z,1.10
2023-04-16T08:58:28.107Z,1.15
2023-04-16T09:00:55.942Z,1.10
2023-04-16T09:03:23.114Z,1.52
2023-04-16T09:05:50.945Z,1.10
2023-04-16T09:08:18.172Z,0.98
2023-04-16T09:10:45.014Z,1.25
2023-04-16T09:13:13.400Z,1.65
2023-04-16T09:15:41.597Z,1.13
2023-04-16T09:18:08.822Z,1.05
2023-04-16T09:20:35.562Z,1.05
2023-04-16T09:23:02.458Z,1.10
2023-04-16T09:25:34.577Z,1.77
2023-04-16T09:28:01.499Z,1.10
2023-04-16T09:30:28.455Z,1.38
2023-04-16T09:33:22.311Z,1.00
2023-04-16T09:35:51.250Z,1.10
2023-04-16T09:38:18.997Z,1.13
2023-04-16T09:40:47.533Z,1.98
2023-04-16T09:43:16.315Z,1.83
2023-04-16T09:45:54.210Z,1.48
2023-04-16T09:48:34.110Z,0.80
2023-04-16T09:51:01.435Z,0.93
2023-04-16T09:53:30.973Z,1.25
2023-04-16T09:55:58.590Z,1.17
2023-04-16T09:58:25.866Z,1.35
2023-04-16T10:01:00.943Z,1.00
2023-04-16T10:03:37.072Z,1.17
2023-04-16T10:06:08.330Z,1.05
2023-04-16T10:08:35.747Z,1.33
2023-04-16T10:11:02.798Z,1.70
2023-04-16T10:13:31.287Z,1.70
2023-04-16T10:15:58.781Z,1.58
2023-04-16T10:18:26.260Z,1.10
2023-04-16T10:20:53.284Z,3.55
2023-04-16T10:23:21.795Z,1.17
2023-04-16T10:25:55.772Z,1.40
2023-04-16T10:28:24.938Z,1.25
2023-04-16T10:30:52.896Z,1.58
2023-04-16T10:33:31.468Z,1.38
2023-04-16T10:36:11.765Z,1.10
2023-04-16T10:38:46.587Z,1.83
2023-04-16T10:41:14.640Z,1.33
2023-04-16T10:43:46.150Z,1.00
2023-04-16T10:46:23.123Z,1.48
2023-04-16T10:48:52.913Z,1.00
2023-04-16T10:51:36.370Z,1.05
2023-04-16T10:54:09.195Z,1.30
2023-04-16T10:56:37.303Z,1.52
2023-04-16T10:59:10.230Z,1.02
2023-04-16T11:01:42.538Z,1.00
2023-04-16T11:04:21.914Z,1.23
2023-04-16T11:07:01.952Z,1.13
2023-04-16T11:09:51.174Z,1.20
2023-04-16T11:12:38.440Z,1.20
2023-04-16T11:15:10.089Z,1.40
2023-04-16T11:17:38.058Z,1.27
2023-04-16T11:20:19.943Z,1.20
2023-04-16T11:22:50.365Z,1.33
2023-04-16T11:25:23.268Z,1.27
2023-04-16T11:27:51.217Z,1.20
2023-04-16T11:30:27.634Z,1.20
2023-04-16T11:32:54.605Z,1.20
2023-04-16T11:35:21.784Z,1.40
2023-04-16T11:37:48.889Z,1.25
2023-04-16T11:40:16.004Z,1.13
2023-04-16T11:42:43.466Z,1.08
2023-04-16T11:45:11.839Z,166.32
2023-04-16T11:47:46.016Z,441.88
2023-04-16T11:50:17.097Z,247.70
2023-04-16T11:52:43.944Z,324.77
2023-04-16T11:55:11.446Z,209.85
2023-04-16T11:57:38.713Z,170.77
2023-04-16T12:00:10.659Z,152.07
2023-04-16T12:02:49.921Z,126.18
2023-04-16T12:05:49.417Z,71.70
2023-04-16T12:08:30.390Z,60.63
2023-04-16T12:10:59.907Z,45.97
2023-04-16T12:13:26.687Z,36.67
2023-04-16T12:15:55.935Z,32.70
2023-04-16T12:18:26.066Z,16.20
2023-04-16T12:20:53.126Z,19.88
2023-04-16T12:23:30.721Z,9.02
2023-04-16T12:26:02.149Z,6.35
2023-04-16T12:28:34.288Z,9.68
2023-04-16T12:31:02.001Z,5.75
2023-04-16T12:33:29.717Z,4.18
2023-04-16T12:35:56.688Z,4.15
2023-04-16T12:38:24.692Z,3.58
2023-04-16T12:40:51.998Z,3.85
2023-04-16T12:43:19.777Z,3.47
2023-04-16T12:45:46.848Z,1.67
2023-04-16T12:48:13.817Z,1.60
2023-04-16T12:50:40.755Z,3.80
2023-04-16T12:53:08.027Z,1.80
2023-04-16T12:55:35.466Z,2.38
2023-04-16T12:58:02.542Z,1.55
2023-04-16T13:00:29.409Z,3.25
2023-04-16T13:02:56.296Z,1.15
2023-04-16T13:05:23.429Z,1.25
2023-04-16T13:07:50.854Z,1.80
2023-04-16T13:10:18.111Z,1.17
2023-04-16T13:12:46.505Z,1.38
2023-04-16T13:15:13.308Z,1.02
2023-04-16T13:17:40.098Z,1.13
2023-04-16T13:20:07.640Z,1.05
2023-04-16T13:22:37.502Z,1.42
2023-04-16T13:25:05.042Z,0.93
2023-04-16T13:27:32.564Z,0.85
2023-04-16T13:30:01.792Z,1.00
2023-04-16T13:32:29.468Z,2.97
2023-04-16T13:34:56.311Z,1.20
2023-04-16T13:37:23.062Z,1.20
2023-04-16T13:39:49.961Z,2.03
2023-04-16T13:42:16.819Z,0.73
2023-04-16T13:44:43.567Z,1.10
2023-04-16T13:47:11.232Z,1.25
2023-04-16T13:49:38.594Z,1.00
2023-04-16T13:52:05.819Z,1.50
2023-04-16T13:54:33.512Z,1.40
2023-04-16T13:57:00.912Z,1.00
2023-04-16T13:59:27.856Z,1.15
2023-04-16T14:01:54.717Z,1.02
2023-04-16T14:04:22.546Z,1.17
2023-04-16T14:06:50.224Z,1.30
2023-04-16T14:09:17.081Z,1.30
2023-04-16T14:11:43.915Z,0.95
2023-04-16T14:14:10.732Z,1.63
2023-04-16T14:16:37.558Z,1.98
2023-04-16T14:19:04.372Z,1.08
2023-04-16T14:21:31.300Z,0.98
2023-04-16T14:23:58.061Z,2.30
2023-04-16T14:26:24.936Z,1.80
2023-04-16T14:28:51.955Z,1.20
2023-04-16T14:31:19.959Z,1.00
2023-04-16T14:33:47.371Z,1.08
2023-04-16T14:36:14.386Z,1.10
2023-04-16T14:38:43.159Z,1.45
2023-04-16T14:41:12.402Z,1.10
2023-04-16T14:43:41.180Z,0.90
2023-04-16T14:46:08.216Z,1.30
2023-04-16T14:48:35.273Z,1.73
2023-04-16T14:51:02.490Z,1.30
2023-04-16T14:53:29.409Z,1.67
2023-04-16T14:55:58.913Z,1.10
2023-04-16T14:58:26.147Z,1.20
2023-04-16T15:00:53.104Z,1.00
2023-04-16T15:03:20.697Z,1.45
2023-04-16T15:05:54.679Z,1.10
2023-04-16T15:08:22.797Z,1.00
2023-04-16T15:10:49.923Z,0.95
2023-04-16T15:13:17.184Z,1.35
2023-04-16T15:15:44.112Z,1.88
2023-04-16T15:18:11.463Z,0.90
2023-04-16T15:20:38.251Z,1.00
2023-04-16T15:23:05.068Z,1.75
2023-04-16T15:25:31.923Z,0.95
2023-04-16T15:27:59.342Z,0.85
2023-04-16T15:30:26.222Z,1.30
2023-04-16T15:32:55.015Z,1.08
2023-04-16T15:35:22.148Z,1.20
2023-04-16T15:37:48.967Z,0.73
2023-04-16T15:40:18.642Z,0.70
2023-04-16T15:42:45.614Z,1.73
2023-04-16T15:45:12.381Z,0.98
2023-04-16T15:47:41.705Z,0.75
2023-04-16T15:50:09.560Z,0.60
2023-04-16T15:52:38.529Z,1.00
2023-04-16T15:55:06.207Z,0.65
2023-04-16T15:57:33.040Z,2.05
2023-04-16T16:00:07.002Z,0.90
2023-04-16T16:02:34.658Z,1.45
2023-04-16T16:05:01.672Z,2.72
2023-04-16T16:07:29.747Z,1.02
2023-04-16T16:09:58.273Z,1.27
2023-04-16T16:12:25.110Z,1.92
2023-04-16T16:14:51.945Z,1.13
2023-04-16T16:17:20.285Z,0.95
2023-04-16T16:19:47.410Z,1.20
2023-04-16T16:22:15.886Z,1.60
2023-04-16T16:24:43.263Z,1.60
2023-04-16T16:27:10.482Z,1.67
2023-04-16T16:29:37.297Z,0.60
2023-04-16T16:32:04.449Z,0.52
2023-04-16T16:34:31.314Z,0.90
2023-04-16T16:36:58.063Z,0.82
2023-04-16T16:39:25.359Z,1.70
2023-04-16T16:41:52.621Z,0.50
2023-04-16T16:44:20.625Z,0.70
2023-04-16T16:46:47.829Z,0.73
2023-04-16T16:49:15.833Z,0.68
2023-04-16T16:51:45.331Z,1.13
2023-04-16T16:54:12.192Z,0.57
2023-04-16T16:56:38.915Z,0.90
2023-04-16T16:59:06.160Z,2.00
2023-04-16T17:01:33.198Z,3.38
2023-04-16T17:04:00.348Z,1.30
2023-04-16T17:06:27.733Z,1.35
2023-04-16T17:08:54.814Z,2.17
2023-04-16T17:11:21.549Z,0.93
2023-04-16T17:13:48.320Z,1.13
2023-04-16T17:16:17.561Z,1.10
2023-04-16T17:18:44.640Z,1.10
2023-04-16T17:21:11.398Z,1.85
2023-04-16T17:23:40.585Z,1.17
2023-04-16T17:26:07.941Z,1.08
2023-04-16T17:28:34.774Z,1.40
2023-04-16T17:31:02.668Z,1.23
2023-04-16T17:33:29.419Z,1.15
2023-04-16T17:35:56.152Z,1.30
2023-04-16T17:38:22.915Z,1.25
2023-04-16T17:40:49.761Z,1.58
2023-04-16T17:43:17.543Z,1.38
2023-04-16T17:45:44.404Z,3.35
2023-04-16T17:48:11.416Z,1.52
2023-04-16T17:50:39.601Z,1.00
2023-04-16T17:53:07.175Z,1.23
2023-04-16T17:55:34.037Z,0.73
2023-04-16T17:58:03.545Z,0.93
2023-04-16T18:00:31.195Z,1.13
2023-04-16T18:02:59.659Z,0.77
2023-04-16T18:05:27.349Z,0.70
2023-04-16T18:07:55.402Z,0.80
2023-04-16T18:10:22.248Z,1.00
2023-04-16T18:12:49.036Z,0.60
2023-04-16T18:15:16.291Z,1.20
2023-04-16T18:17:43.077Z,2.58
2023-04-16T18:20:12.691Z,1.25
2023-04-16T18:22:43.192Z,1.52
2023-04-16T18:25:10.623Z,1.02
2023-04-16T18:27:37.911Z,1.13
2023-04-16T18:30:06.328Z,2.58
2023-04-16T18:32:33.776Z,0.73
2023-04-16T18:35:00.789Z,1.67
2023-04-16T18:37:27.530Z,0.85
2023-04-16T18:39:57.396Z,1.15
2023-04-16T18:42:28.132Z,1.15
2023-04-16T18:44:55.391Z,0.75
2023-04-16T18:47:22.256Z,4.35
2023-04-16T18:49:49.116Z,1.10
2023-04-16T18:52:16.091Z,1.65
2023-04-16T18:54:43.558Z,2.55
2023-04-16T18:57:10.592Z,1.00
2023-04-16T18:59:37.346Z,2.05
2023-04-16T19:02:04.335Z,1.33
2023-04-16T19:04:31.530Z,3.15
2023-04-16T19:06:58.934Z,1.15
2023-04-16T19:09:27.091Z,1.00
2023-04-16T19:11:54.192Z,2.13
2023-04-16T19:14:21.245Z,1.92
2023-04-16T19:16:48.020Z,3.42
2023-04-16T19:19:16.478Z,3.17
2023-04-16T19:21:43.264Z,2.97
2023-04-16T19:24:10.524Z,2.13
2023-04-16T19:26:37.269Z,3.28
2023-04-16T19:29:04.010Z,3.83
2023-04-16T19:31:30.990Z,2.45
2023-04-16T19:33:57.785Z,2.72
2023-04-16T19:36:24.789Z,2.15
2023-04-16T19:38:51.598Z,1.85
2023-04-16T19:41:18.396Z,2.05
2023-04-16T19:43:46.060Z,1.30
2023-04-16T19:46:12.909Z,1.73
2023-04-16T19:48:40.041Z,1.58
2023-04-16T19:51:06.871Z,1.73
2023-04-16T19:53:34.696Z,1.05
2023-04-16T19:56:01.591Z,1.35
2023-04-16T19:58:28.895Z,1.08
2023-04-16T20:00:56.617Z,2.33
2023-04-16T20:03:23.460Z,2.55
2023-04-16T20:05:50.516Z,1.30
2023-04-16T20:08:17.277Z,1.63
2023-04-16T20:10:44.216Z,2.22
2023-04-16T20:13:12.127Z,2.72
2023-04-16T20:15:39.083Z,1.55
2023-04-16T20:18:07.455Z,2.55
2023-04-16T20:20:36.502Z,1.40
2023-04-16T20:23:03.281Z,2.45
2023-04-16T20:25:30.024Z,4.45
2023-04-16T20:27:57.047Z,2.00
2023-04-16T20:30:29.147Z,1.98
2023-04-16T20:32:56.512Z,2.15
2023-04-16T20:35:23.500Z,1.70
2023-04-16T20:37:50.231Z,1.17
2023-04-16T20:40:17.152Z,1.30
2023-04-16T20:42:46.327Z,1.20
2023-04-16T20:45:13.290Z,1.30
2023-04-16T20:47:40.379Z,1.52
2023-04-16T20:50:07.877Z,1.52
2023-04-16T20:52:34.603Z,2.60
2023-04-16T20:55:01.542Z,1.92
2023-04-16T20:57:29.834Z,1.10
2023-04-16T20:59:56.613Z,3.42
2023-04-16T21:02:24.314Z,2.00
2023-04-16T21:04:51.422Z,1.50
2023-04-16T21:07:18.200Z,1.25
2023-04-16T21:09:44.962Z,1.55
2023-04-16T21:12:11.796Z,2.35
2023-04-16T21:14:38.592Z,1.75
2023-04-16T21:17:06.325Z,2.80
2023-04-16T21:19:33.195Z,1.30
2023-04-16T21:21:59.954Z,1.88
2023-04-16T21:24:26.710Z,3.60
2023-04-16T21:26:53.660Z,1.20
2023-04-16T21:29:20.461Z,1.70
2023-04-16T21:31:47.530Z,2.40
2023-04-16T21:34:14.411Z,1.00
2023-04-16T21:36:41.161Z,1.45
2023-04-16T21:39:08.072Z,1.35
2023-04-16T21:41:34.896Z,1.60
2023-04-16T21:44:01.677Z,2.38
2023-04-16T21:46:28.873Z,2.08
2023-04-16T21:48:55.862Z,2.17
2023-04-16T21:51:29.144Z,3.75
2023-04-16T21:53:56.876Z,1.95
2023-04-16T21:56:24.534Z,1.65
2023-04-16T21:58:51.309Z,1.48
2023-04-16T22:01:18.105Z,1.50
2023-04-16T22:03:46.855Z,2.08
2023-04-16T22:06:14.164Z,1.92
2023-04-16T22:08:41.173Z,1.75
2023-04-16T22:11:08.021Z,1.70
2023-04-16T22:13:36.411Z,1.60
2023-04-16T22:16:03.769Z,2.97
2023-04-16T22:18:33.995Z,2.63
2023-04-16T22:21:02.019Z,1.80
2023-04-16T22:23:28.844Z,2.25
2023-04-16T22:25:56.410Z,2.47
2023-04-16T22:28:23.394Z,2.47
2023-04-16T22:30:50.346Z,2.60
2023-04-16T22:33:17.435Z,2.30
2023-04-16T22:35:44.330Z,2.45
2023-04-16T22:38:11.143Z,2.33
2023-04-16T22:40:37.966Z,2.40
2023-04-16T22:43:05.208Z,2.33
2023-04-16T22:45:32.308Z,1.80
2023-04-16T22:47:59.286Z,2.00
2023-04-16T22:50:26.124Z,2.28
2023-04-16T22:52:52.886Z,1.80
2023-04-16T22:55:19.741Z,1.55
2023-04-16T22:57:47.435Z,1.67
2023-04-16T23:00:17.727Z,3.25
2023-04-16T23:02:45.282Z,1.75
2023-04-16T23:05:12.341Z,1.80
2023-04-16T23:07:39.226Z,1.60
2023-04-16T23:10:08.272Z,1.52
2023-04-16T23:12:37.302Z,1.15
2023-04-16T23:15:06.385Z,2.70
2023-04-16T23:17:33.827Z,1.40
2023-04-16T23:20:00.981Z,2.33
2023-04-16T23:22:28.172Z,1.23
2023-04-16T23:24:55.016Z,2.08
2023-04-16T23:27:21.911Z,1.27
2023-04-16T23:29:48.774Z,1.65
2023-04-16T23:32:16.303Z,1.42
2023-04-16T23:34:43.101Z,0.77
2023-04-16T23:37:10.025Z,1.33
2023-04-16T23:39:37.592Z,1.02
2023-04-16T23:42:04.392Z,1.75
2023-04-16T23:44:31.235Z,1.23
2023-04-16T23:46:58.148Z,0.85
2023-04-16T23:49:25.036Z,1.00
2023-04-16T23:51:52.099Z,1.30
2023-04-16T23:54:19.683Z,1.33
2023-04-16T23:56:46.481Z,3.40
2023-04-16T23:59:13.640Z,1.20
